sensor_id;sensor_type;location;lat;lon;timestamp;P1;durP1;ratioP1;P2;durP2;ratioP2
8574;SDS011;4325;42.520;27.448;2024-02-26T00:00:21;12.27;;;9.03;;
8574;SDS011;4325;42.520;27.448;2024-02-26T00:02:49;15.53;;;10.43;;
8574;SDS011;4325;42.520;27.448;2024-02-26T00:05:16;16.13;;;9.70;;
8574;SDS011;4325;42.520;27.448;2024-02-26T00:07:43;16.03;;;10.00;;
8574;SDS011;4325;42.520;27.448;2024-02-26T00:10:11;14.87;;;9.67;;
8574;SDS011;4325;42.520;27.448;2024-02-26T00:12:39;13.60;;;9.87;;
8574;SDS011;4325;42.520;27.448;2024-02-26T00:15:06;20.73;;;11.23;;
8574;SDS011;4325;42.520;27.448;2024-02-26T00:17:34;16.07;;;11.07;;
8574;SDS011;4325;42.520;27.448;2024-02-26T00:20:01;17.33;;;11.47;;
8574;SDS011;4325;42.520;27.448;2024-02-26T00:22:29;16.20;;;10.57;;
8574;SDS011;4325;42.520;27.448;2024-02-26T00:24:56;18.50;;;11.00;;
8574;SDS011;4325;42.520;27.448;2024-02-26T00:27:25;18.00;;;10.60;;
8574;SDS011;4325;42.520;27.448;2024-02-26T00:29:52;17.40;;;11.73;;
8574;SDS011;4325;42.520;27.448;2024-02-26T00:32:19;17.47;;;11.27;;
8574;SDS011;4325;42.520;27.448;2024-02-26T00:34:46;18.07;;;10.83;;
8574;SDS011;4325;42.520;27.448;2024-02-26T00:37:13;17.90;;;10.93;;
8574;SDS011;4325;42.520;27.448;2024-02-26T00:39:40;16.57;;;11.50;;
8574;SDS011;4325;42.520;27.448;2024-02-26T00:42:07;22.80;;;12.63;;
8574;SDS011;4325;42.520;27.448;2024-02-26T00:44:35;16.33;;;10.30;;
8574;SDS011;4325;42.520;27.448;2024-02-26T00:47:02;16.53;;;11.03;;
8574;SDS011;4325;42.520;27.448;2024-02-26T00:49:30;17.43;;;10.60;;
8574;SDS011;4325;42.520;27.448;2024-02-26T00:51:57;18.23;;;11.47;;
8574;SDS011;4325;42.520;27.448;2024-02-26T00:54:24;18.87;;;11.70;;
8574;SDS011;4325;42.520;27.448;2024-02-26T00:56:51;19.20;;;11.80;;
8574;SDS011;4325;42.520;27.448;2024-02-26T00:59:18;15.83;;;11.17;;
8574;SDS011;4325;42.520;27.448;2024-02-26T01:01:46;19.30;;;12.53;;
8574;SDS011;4325;42.520;27.448;2024-02-26T01:04:14;19.77;;;11.97;;
8574;SDS011;4325;42.520;27.448;2024-02-26T01:06:41;19.73;;;13.33;;
8574;SDS011;4325;42.520;27.448;2024-02-26T01:09:08;20.30;;;12.53;;
8574;SDS011;4325;42.520;27.448;2024-02-26T01:11:35;20.67;;;12.33;;
8574;SDS011;4325;42.520;27.448;2024-02-26T01:14:02;23.77;;;13.07;;
8574;SDS011;4325;42.520;27.448;2024-02-26T01:16:29;21.93;;;11.73;;
8574;SDS011;4325;42.520;27.448;2024-02-26T01:18:58;19.27;;;11.93;;
8574;SDS011;4325;42.520;27.448;2024-02-26T01:21:25;18.67;;;13.03;;
8574;SDS011;4325;42.520;27.448;2024-02-26T01:23:54;21.83;;;11.83;;
8574;SDS011;4325;42.520;27.448;2024-02-26T01:26:21;16.17;;;11.20;;
8574;SDS011;4325;42.520;27.448;2024-02-26T01:28:48;17.77;;;12.33;;
8574;SDS011;4325;42.520;27.448;2024-02-26T01:31:15;20.30;;;13.00;;
8574;SDS011;4325;42.520;27.448;2024-02-26T01:33:42;21.63;;;13.20;;
8574;SDS011;4325;42.520;27.448;2024-02-26T01:36:11;18.40;;;12.60;;
8574;SDS011;4325;42.520;27.448;2024-02-26T01:38:38;19.77;;;12.33;;
8574;SDS011;4325;42.520;27.448;2024-02-26T01:41:05;22.20;;;13.47;;
8574;SDS011;4325;42.520;27.448;2024-02-26T01:43:32;20.27;;;12.37;;
8574;SDS011;4325;42.520;27.448;2024-02-26T01:45:59;23.87;;;13.87;;
8574;SDS011;4325;42.520;27.448;2024-02-26T01:48:27;19.30;;;12.60;;
8574;SDS011;4325;42.520;27.448;2024-02-26T01:50:54;18.87;;;13.00;;
8574;SDS011;4325;42.520;27.448;2024-02-26T01:53:23;21.63;;;13.63;;
8574;SDS011;4325;42.520;27.448;2024-02-26T01:55:50;23.90;;;12.53;;
8574;SDS011;4325;42.520;27.448;2024-02-26T01:58:18;23.50;;;13.73;;
8574;SDS011;4325;42.520;27.448;2024-02-26T02:00:45;22.40;;;13.93;;
8574;SDS011;4325;42.520;27.448;2024-02-26T02:03:13;22.27;;;13.70;;
8574;SDS011;4325;42.520;27.448;2024-02-26T02:05:40;23.67;;;13.87;;
8574;SDS011;4325;42.520;27.448;2024-02-26T02:08:08;26.43;;;13.23;;
8574;SDS011;4325;42.520;27.448;2024-02-26T02:10:38;21.73;;;13.70;;
8574;SDS011;4325;42.520;27.448;2024-02-26T02:13:05;23.77;;;14.57;;
8574;SDS011;4325;42.520;27.448;2024-02-26T02:15:33;21.20;;;13.03;;
8574;SDS011;4325;42.520;27.448;2024-02-26T02:18:00;26.33;;;12.77;;
8574;SDS011;4325;42.520;27.448;2024-02-26T02:20:32;26.57;;;13.70;;
8574;SDS011;4325;42.520;27.448;2024-02-26T02:23:00;21.60;;;13.33;;
8574;SDS011;4325;42.520;27.448;2024-02-26T02:25:27;21.30;;;13.17;;
8574;SDS011;4325;42.520;27.448;2024-02-26T02:27:55;18.87;;;12.87;;
8574;SDS011;4325;42.520;27.448;2024-02-26T02:30:23;23.40;;;13.30;;
8574;SDS011;4325;42.520;27.448;2024-02-26T02:32:53;24.20;;;13.37;;
8574;SDS011;4325;42.520;27.448;2024-02-26T02:35:20;20.67;;;13.30;;
8574;SDS011;4325;42.520;27.448;2024-02-26T02:37:49;23.20;;;13.63;;
8574;SDS011;4325;42.520;27.448;2024-02-26T02:40:16;21.57;;;13.67;;
8574;SDS011;4325;42.520;27.448;2024-02-26T02:42:43;22.50;;;12.87;;
8574;SDS011;4325;42.520;27.448;2024-02-26T02:45:10;22.47;;;13.83;;
8574;SDS011;4325;42.520;27.448;2024-02-26T02:47:37;21.83;;;13.07;;
8574;SDS011;4325;42.520;27.448;2024-02-26T02:50:05;19.40;;;12.73;;
8574;SDS011;4325;42.520;27.448;2024-02-26T02:52:32;19.27;;;13.53;;
8574;SDS011;4325;42.520;27.448;2024-02-26T02:55:01;27.63;;;15.23;;
8574;SDS011;4325;42.520;27.448;2024-02-26T02:57:29;26.47;;;13.57;;
8574;SDS011;4325;42.520;27.448;2024-02-26T02:59:56;23.70;;;14.50;;
8574;SDS011;4325;42.520;27.448;2024-02-26T03:02:23;31.13;;;14.27;;
8574;SDS011;4325;42.520;27.448;2024-02-26T03:04:51;22.33;;;13.97;;
8574;SDS011;4325;42.520;27.448;2024-02-26T03:07:18;21.00;;;13.30;;
8574;SDS011;4325;42.520;27.448;2024-02-26T03:09:45;22.70;;;13.53;;
8574;SDS011;4325;42.520;27.448;2024-02-26T03:12:13;22.67;;;12.77;;
8574;SDS011;4325;42.520;27.448;2024-02-26T03:14:40;25.63;;;14.27;;
8574;SDS011;4325;42.520;27.448;2024-02-26T03:17:07;19.60;;;13.40;;
8574;SDS011;4325;42.520;27.448;2024-02-26T03:19:34;23.50;;;13.73;;
8574;SDS011;4325;42.520;27.448;2024-02-26T03:22:01;22.73;;;14.23;;
8574;SDS011;4325;42.520;27.448;2024-02-26T03:24:28;19.30;;;13.00;;
8574;SDS011;4325;42.520;27.448;2024-02-26T03:26:56;25.20;;;12.87;;
8574;SDS011;4325;42.520;27.448;2024-02-26T03:29:24;23.43;;;13.67;;
8574;SDS011;4325;42.520;27.448;2024-02-26T03:31:51;23.33;;;12.83;;
8574;SDS011;4325;42.520;27.448;2024-02-26T03:34:18;22.37;;;13.40;;
8574;SDS011;4325;42.520;27.448;2024-02-26T03:36:45;26.40;;;13.57;;
8574;SDS011;4325;42.520;27.448;2024-02-26T03:39:12;22.30;;;13.07;;
8574;SDS011;4325;42.520;27.448;2024-02-26T03:41:39;21.00;;;12.90;;
8574;SDS011;4325;42.520;27.448;2024-02-26T03:44:06;20.53;;;14.07;;
8574;SDS011;4325;42.520;27.448;2024-02-26T03:46:35;24.43;;;13.07;;
8574;SDS011;4325;42.520;27.448;2024-02-26T03:49:02;21.33;;;12.33;;
8574;SDS011;4325;42.520;27.448;2024-02-26T03:51:29;21.13;;;12.30;;
8574;SDS011;4325;42.520;27.448;2024-02-26T03:53:56;20.37;;;12.70;;
8574;SDS011;4325;42.520;27.448;2024-02-26T03:56:24;23.87;;;13.27;;
8574;SDS011;4325;42.520;27.448;2024-02-26T03:58:51;19.07;;;12.60;;
8574;SDS011;4325;42.520;27.448;2024-02-26T04:01:19;22.13;;;12.70;;
8574;SDS011;4325;42.520;27.448;2024-02-26T04:03:47;20.63;;;13.07;;
8574;SDS011;4325;42.520;27.448;2024-02-26T04:06:14;17.50;;;12.27;;
8574;SDS011;4325;42.520;27.448;2024-02-26T04:08:43;19.47;;;12.30;;
8574;SDS011;4325;42.520;27.448;2024-02-26T04:11:10;21.67;;;13.27;;
8574;SDS011;4325;42.520;27.448;2024-02-26T04:13:37;23.57;;;13.80;;
8574;SDS011;4325;42.520;27.448;2024-02-26T04:16:04;17.97;;;12.53;;
8574;SDS011;4325;42.520;27.448;2024-02-26T04:18:32;22.33;;;11.93;;
8574;SDS011;4325;42.520;27.448;2024-02-26T04:21:00;22.53;;;12.87;;
8574;SDS011;4325;42.520;27.448;2024-02-26T04:23:27;23.40;;;13.53;;
8574;SDS011;4325;42.520;27.448;2024-02-26T04:25:54;20.47;;;12.47;;
8574;SDS011;4325;42.520;27.448;2024-02-26T04:28:21;22.77;;;12.40;;
8574;SDS011;4325;42.520;27.448;2024-02-26T04:30:50;20.73;;;12.27;;
8574;SDS011;4325;42.520;27.448;2024-02-26T04:33:17;19.33;;;12.07;;
8574;SDS011;4325;42.520;27.448;2024-02-26T04:35:44;22.37;;;11.20;;
8574;SDS011;4325;42.520;27.448;2024-02-26T04:38:13;19.10;;;12.57;;
8574;SDS011;4325;42.520;27.448;2024-02-26T04:40:40;20.50;;;10.90;;
8574;SDS011;4325;42.520;27.448;2024-02-26T04:43:07;17.87;;;11.63;;
8574;SDS011;4325;42.520;27.448;2024-02-26T04:45:34;17.87;;;10.57;;
8574;SDS011;4325;42.520;27.448;2024-02-26T04:48:01;17.27;;;11.37;;
8574;SDS011;4325;42.520;27.448;2024-02-26T04:50:29;21.93;;;11.77;;
8574;SDS011;4325;42.520;27.448;2024-02-26T04:52:56;20.27;;;11.63;;
8574;SDS011;4325;42.520;27.448;2024-02-26T04:55:24;18.77;;;10.43;;
8574;SDS011;4325;42.520;27.448;2024-02-26T04:57:51;22.73;;;11.20;;
8574;SDS011;4325;42.520;27.448;2024-02-26T05:00:18;17.03;;;10.63;;
8574;SDS011;4325;42.520;27.448;2024-02-26T05:02:45;14.67;;;9.23;;
8574;SDS011;4325;42.520;27.448;2024-02-26T05:05:12;23.83;;;11.17;;
8574;SDS011;4325;42.520;27.448;2024-02-26T05:07:40;16.70;;;9.67;;
8574;SDS011;4325;42.520;27.448;2024-02-26T05:10:08;19.60;;;10.40;;
8574;SDS011;4325;42.520;27.448;2024-02-26T05:12:37;16.17;;;9.53;;
8574;SDS011;4325;42.520;27.448;2024-02-26T05:15:06;17.40;;;9.97;;
8574;SDS011;4325;42.520;27.448;2024-02-26T05:17:33;20.57;;;10.03;;
8574;SDS011;4325;42.520;27.448;2024-02-26T05:20:00;15.37;;;9.20;;
8574;SDS011;4325;42.520;27.448;2024-02-26T05:22:27;19.70;;;10.10;;
8574;SDS011;4325;42.520;27.448;2024-02-26T05:24:54;15.20;;;9.13;;
8574;SDS011;4325;42.520;27.448;2024-02-26T05:27:22;16.67;;;9.80;;
8574;SDS011;4325;42.520;27.448;2024-02-26T05:29:50;16.03;;;9.53;;
8574;SDS011;4325;42.520;27.448;2024-02-26T05:32:19;25.87;;;9.73;;
8574;SDS011;4325;42.520;27.448;2024-02-26T05:34:46;15.67;;;8.53;;
8574;SDS011;4325;42.520;27.448;2024-02-26T05:37:13;14.20;;;9.07;;
8574;SDS011;4325;42.520;27.448;2024-02-26T05:39:40;14.77;;;9.17;;
8574;SDS011;4325;42.520;27.448;2024-02-26T05:42:07;18.60;;;8.33;;
8574;SDS011;4325;42.520;27.448;2024-02-26T05:44:35;12.83;;;7.73;;
8574;SDS011;4325;42.520;27.448;2024-02-26T05:47:04;15.73;;;8.63;;
8574;SDS011;4325;42.520;27.448;2024-02-26T05:49:31;16.93;;;7.97;;
8574;SDS011;4325;42.520;27.448;2024-02-26T05:51:58;17.23;;;9.23;;
8574;SDS011;4325;42.520;27.448;2024-02-26T05:54:25;17.00;;;8.30;;
8574;SDS011;4325;42.520;27.448;2024-02-26T05:56:52;17.53;;;9.17;;
8574;SDS011;4325;42.520;27.448;2024-02-26T05:59:19;17.10;;;8.83;;
8574;SDS011;4325;42.520;27.448;2024-02-26T06:01:47;19.03;;;8.20;;
8574;SDS011;4325;42.520;27.448;2024-02-26T06:04:15;16.37;;;7.90;;
8574;SDS011;4325;42.520;27.448;2024-02-26T06:06:43;13.47;;;7.03;;
8574;SDS011;4325;42.520;27.448;2024-02-26T06:09:11;17.43;;;7.80;;
8574;SDS011;4325;42.520;27.448;2024-02-26T06:11:38;19.37;;;8.87;;
8574;SDS011;4325;42.520;27.448;2024-02-26T06:14:05;18.83;;;8.23;;
8574;SDS011;4325;42.520;27.448;2024-02-26T06:16:32;16.80;;;7.40;;
8574;SDS011;4325;42.520;27.448;2024-02-26T06:19:00;13.13;;;6.60;;
8574;SDS011;4325;42.520;27.448;2024-02-26T06:21:28;15.30;;;6.97;;
8574;SDS011;4325;42.520;27.448;2024-02-26T06:23:55;17.70;;;6.83;;
8574;SDS011;4325;42.520;27.448;2024-02-26T06:26:22;16.13;;;6.33;;
8574;SDS011;4325;42.520;27.448;2024-02-26T06:28:49;17.33;;;6.73;;
8574;SDS011;4325;42.520;27.448;2024-02-26T06:31:17;18.30;;;6.50;;
8574;SDS011;4325;42.520;27.448;2024-02-26T06:33:44;15.93;;;6.27;;
8574;SDS011;4325;42.520;27.448;2024-02-26T06:36:11;10.07;;;5.90;;
8574;SDS011;4325;42.520;27.448;2024-02-26T06:38:40;14.57;;;6.90;;
8574;SDS011;4325;42.520;27.448;2024-02-26T06:41:07;14.50;;;6.33;;
8574;SDS011;4325;42.520;27.448;2024-02-26T06:43:34;13.10;;;5.67;;
8574;SDS011;4325;42.520;27.448;2024-02-26T06:46:01;12.73;;;5.90;;
8574;SDS011;4325;42.520;27.448;2024-02-26T06:48:28;12.60;;;5.73;;
8574;SDS011;4325;42.520;27.448;2024-02-26T06:50:55;12.97;;;5.53;;
8574;SDS011;4325;42.520;27.448;2024-02-26T06:53:22;13.83;;;6.07;;
8574;SDS011;4325;42.520;27.448;2024-02-26T06:55:51;13.00;;;6.20;;
8574;SDS011;4325;42.520;27.448;2024-02-26T06:58:18;11.60;;;5.43;;
8574;SDS011;4325;42.520;27.448;2024-02-26T07:00:45;14.27;;;6.53;;
8574;SDS011;4325;42.520;27.448;2024-02-26T07:03:13;10.73;;;6.03;;
8574;SDS011;4325;42.520;27.448;2024-02-26T07:05:40;18.33;;;6.20;;
8574;SDS011;4325;42.520;27.448;2024-02-26T07:08:07;9.10;;;6.30;;
8574;SDS011;4325;42.520;27.448;2024-02-26T07:10:34;9.83;;;5.70;;
8574;SDS011;4325;42.520;27.448;2024-02-26T07:13:02;11.10;;;5.37;;
8574;SDS011;4325;42.520;27.448;2024-02-26T07:15:30;11.43;;;6.33;;
8574;SDS011;4325;42.520;27.448;2024-02-26T07:17:57;25.60;;;6.70;;
8574;SDS011;4325;42.520;27.448;2024-02-26T07:20:28;13.17;;;6.40;;
8574;SDS011;4325;42.520;27.448;2024-02-26T07:22:55;15.87;;;7.00;;
8574;SDS011;4325;42.520;27.448;2024-02-26T07:25:22;11.60;;;5.27;;
8574;SDS011;4325;42.520;27.448;2024-02-26T07:27:49;12.33;;;6.33;;
8574;SDS011;4325;42.520;27.448;2024-02-26T07:30:18;12.33;;;6.30;;
8574;SDS011;4325;42.520;27.448;2024-02-26T07:32:45;10.63;;;6.17;;
8574;SDS011;4325;42.520;27.448;2024-02-26T07:35:12;14.17;;;5.97;;
8574;SDS011;4325;42.520;27.448;2024-02-26T07:37:39;9.23;;;5.43;;
8574;SDS011;4325;42.520;27.448;2024-02-26T07:40:06;14.83;;;5.37;;
8574;SDS011;4325;42.520;27.448;2024-02-26T07:42:34;12.00;;;6.07;;
8574;SDS011;4325;42.520;27.448;2024-02-26T07:45:02;9.40;;;5.33;;
8574;SDS011;4325;42.520;27.448;2024-02-26T07:47:31;12.53;;;5.50;;
8574;SDS011;4325;42.520;27.448;2024-02-26T07:49:59;13.07;;;5.33;;
8574;SDS011;4325;42.520;27.448;2024-02-26T07:52:26;11.97;;;4.97;;
8574;SDS011;4325;42.520;27.448;2024-02-26T07:54:53;13.07;;;5.27;;
8574;SDS011;4325;42.520;27.448;2024-02-26T07:57:20;14.37;;;5.60;;
8574;SDS011;4325;42.520;27.448;2024-02-26T07:59:47;9.07;;;4.53;;
8574;SDS011;4325;42.520;27.448;2024-02-26T08:02:15;10.10;;;4.73;;
8574;SDS011;4325;42.520;27.448;2024-02-26T08:04:43;11.17;;;5.20;;
8574;SDS011;4325;42.520;27.448;2024-02-26T08:07:10;8.73;;;4.37;;
8574;SDS011;4325;42.520;27.448;2024-02-26T08:09:37;13.30;;;4.93;;
8574;SDS011;4325;42.520;27.448;2024-02-26T08:12:05;18.03;;;5.03;;
8574;SDS011;4325;42.520;27.448;2024-02-26T08:14:32;8.00;;;4.30;;
8574;SDS011;4325;42.520;27.448;2024-02-26T08:16:59;12.67;;;5.03;;
8574;SDS011;4325;42.520;27.448;2024-02-26T08:19:27;8.33;;;4.43;;
8574;SDS011;4325;42.520;27.448;2024-02-26T08:21:55;11.73;;;5.20;;
8574;SDS011;4325;42.520;27.448;2024-02-26T08:24:22;11.77;;;4.60;;
8574;SDS011;4325;42.520;27.448;2024-02-26T08:26:50;13.27;;;5.87;;
8574;SDS011;4325;42.520;27.448;2024-02-26T08:29:17;12.17;;;5.63;;
8574;SDS011;4325;42.520;27.448;2024-02-26T08:31:44;11.23;;;5.00;;
8574;SDS011;4325;42.520;27.448;2024-02-26T08:34:11;9.33;;;4.47;;
8574;SDS011;4325;42.520;27.448;2024-02-26T08:36:38;12.37;;;5.33;;
8574;SDS011;4325;42.520;27.448;2024-02-26T08:39:08;17.40;;;4.93;;
8574;SDS011;4325;42.520;27.448;2024-02-26T08:41:35;10.03;;;4.90;;
8574;SDS011;4325;42.520;27.448;2024-02-26T08:44:02;12.60;;;4.90;;
8574;SDS011;4325;42.520;27.448;2024-02-26T08:49:16;9.10;;;5.27;;
8574;SDS011;4325;42.520;27.448;2024-02-26T08:51:43;12.07;;;5.10;;
8574;SDS011;4325;42.520;27.448;2024-02-26T08:54:11;13.47;;;4.80;;
8574;SDS011;4325;42.520;27.448;2024-02-26T08:56:39;15.30;;;5.33;;
8574;SDS011;4325;42.520;27.448;2024-02-26T08:59:06;14.57;;;5.60;;
8574;SDS011;4325;42.520;27.448;2024-02-26T09:01:33;14.53;;;5.97;;
8574;SDS011;4325;42.520;27.448;2024-02-26T09:04:00;12.07;;;4.93;;
8574;SDS011;4325;42.520;27.448;2024-02-26T09:06:27;10.67;;;5.13;;
8574;SDS011;4325;42.520;27.448;2024-02-26T09:08:54;12.97;;;4.93;;
8574;SDS011;4325;42.520;27.448;2024-02-26T09:11:23;9.53;;;4.60;;
8574;SDS011;4325;42.520;27.448;2024-02-26T09:13:50;11.23;;;5.13;;
8574;SDS011;4325;42.520;27.448;2024-02-26T09:16:17;16.20;;;5.10;;
8574;SDS011;4325;42.520;27.448;2024-02-26T09:18:44;9.33;;;5.00;;
8574;SDS011;4325;42.520;27.448;2024-02-26T09:21:12;10.10;;;5.30;;
8574;SDS011;4325;42.520;27.448;2024-02-26T09:23:40;14.70;;;5.97;;
8574;SDS011;4325;42.520;27.448;2024-02-26T09:26:07;22.10;;;6.03;;
8574;SDS011;4325;42.520;27.448;2024-02-26T09:28:36;10.07;;;4.70;;
8574;SDS011;4325;42.520;27.448;2024-02-26T09:31:04;9.73;;;4.77;;
8574;SDS011;4325;42.520;27.448;2024-02-26T09:33:31;17.40;;;6.23;;
8574;SDS011;4325;42.520;27.448;2024-02-26T09:35:58;8.37;;;4.57;;
8574;SDS011;4325;42.520;27.448;2024-02-26T09:38:26;13.27;;;4.77;;
8574;SDS011;4325;42.520;27.448;2024-02-26T09:40:55;11.63;;;5.57;;
8574;SDS011;4325;42.520;27.448;2024-02-26T09:43:23;15.47;;;5.40;;
8574;SDS011;4325;42.520;27.448;2024-02-26T09:45:51;14.47;;;5.13;;
8574;SDS011;4325;42.520;27.448;2024-02-26T09:48:20;16.57;;;5.17;;
8574;SDS011;4325;42.520;27.448;2024-02-26T09:50:48;13.83;;;6.00;;
8574;SDS011;4325;42.520;27.448;2024-02-26T09:53:16;9.20;;;5.27;;
8574;SDS011;4325;42.520;27.448;2024-02-26T09:55:44;9.50;;;4.93;;
8574;SDS011;4325;42.520;27.448;2024-02-26T09:58:11;16.30;;;4.73;;
8574;SDS011;4325;42.520;27.448;2024-02-26T10:00:45;25.17;;;8.47;;
8574;SDS011;4325;42.520;27.448;2024-02-26T10:03:19;10.10;;;4.80;;
8574;SDS011;4325;42.520;27.448;2024-02-26T10:05:50;14.03;;;4.90;;
8574;SDS011;4325;42.520;27.448;2024-02-26T10:08:20;11.70;;;4.63;;
8574;SDS011;4325;42.520;27.448;2024-02-26T10:10:48;10.20;;;4.43;;
8574;SDS011;4325;42.520;27.448;2024-02-26T10:13:16;7.93;;;4.63;;
8574;SDS011;4325;42.520;27.448;2024-02-26T10:15:44;12.20;;;5.40;;
8574;SDS011;4325;42.520;27.448;2024-02-26T10:18:11;13.13;;;5.13;;
8574;SDS011;4325;42.520;27.448;2024-02-26T10:20:40;15.93;;;5.07;;
8574;SDS011;4325;42.520;27.448;2024-02-26T10:23:07;10.17;;;5.40;;
8574;SDS011;4325;42.520;27.448;2024-02-26T10:25:34;12.37;;;4.60;;
8574;SDS011;4325;42.520;27.448;2024-02-26T10:28:01;9.20;;;4.53;;
8574;SDS011;4325;42.520;27.448;2024-02-26T10:30:29;18.07;;;5.33;;
8574;SDS011;4325;42.520;27.448;2024-02-26T10:32:56;9.43;;;4.00;;
8574;SDS011;4325;42.520;27.448;2024-02-26T10:35:23;19.13;;;5.23;;
8574;SDS011;4325;42.520;27.448;2024-02-26T10:37:52;13.67;;;4.90;;
8574;SDS011;4325;42.520;27.448;2024-02-26T10:40:19;10.83;;;4.33;;
8574;SDS011;4325;42.520;27.448;2024-02-26T10:42:46;7.70;;;3.97;;
8574;SDS011;4325;42.520;27.448;2024-02-26T10:45:13;8.93;;;4.20;;
8574;SDS011;4325;42.520;27.448;2024-02-26T10:47:40;20.53;;;4.83;;
8574;SDS011;4325;42.520;27.448;2024-02-26T10:50:08;9.57;;;4.83;;
8574;SDS011;4325;42.520;27.448;2024-02-26T10:52:36;12.03;;;4.67;;
8574;SDS011;4325;42.520;27.448;2024-02-26T10:55:05;10.40;;;4.87;;
8574;SDS011;4325;42.520;27.448;2024-02-26T10:57:33;6.30;;;3.93;;
8574;SDS011;4325;42.520;27.448;2024-02-26T11:00:03;14.37;;;4.53;;
8574;SDS011;4325;42.520;27.448;2024-02-26T11:02:31;8.97;;;4.10;;
8574;SDS011;4325;42.520;27.448;2024-02-26T11:05:00;12.87;;;4.60;;
8574;SDS011;4325;42.520;27.448;2024-02-26T11:07:29;8.70;;;4.90;;
8574;SDS011;4325;42.520;27.448;2024-02-26T11:09:57;14.73;;;5.77;;
8574;SDS011;4325;42.520;27.448;2024-02-26T11:12:27;8.73;;;4.40;;
8574;SDS011;4325;42.520;27.448;2024-02-26T11:14:55;10.57;;;4.37;;
8574;SDS011;4325;42.520;27.448;2024-02-26T11:17:23;13.37;;;4.97;;
8574;SDS011;4325;42.520;27.448;2024-02-26T11:19:54;8.60;;;3.70;;
8574;SDS011;4325;42.520;27.448;2024-02-26T11:22:23;12.53;;;4.57;;
8574;SDS011;4325;42.520;27.448;2024-02-26T11:24:51;10.03;;;3.90;;
8574;SDS011;4325;42.520;27.448;2024-02-26T11:27:19;8.50;;;4.03;;
8574;SDS011;4325;42.520;27.448;2024-02-26T11:29:52;4.43;;;3.40;;
8574;SDS011;4325;42.520;27.448;2024-02-26T11:32:22;9.53;;;4.23;;
8574;SDS011;4325;42.520;27.448;2024-02-26T11:34:50;9.53;;;3.90;;
8574;SDS011;4325;42.520;27.448;2024-02-26T11:37:20;10.93;;;3.50;;
8574;SDS011;4325;42.520;27.448;2024-02-26T11:39:47;6.67;;;3.93;;
8574;SDS011;4325;42.520;27.448;2024-02-26T11:42:14;7.80;;;3.77;;
8574;SDS011;4325;42.520;27.448;2024-02-26T11:44:42;7.33;;;3.53;;
8574;SDS011;4325;42.520;27.448;2024-02-26T11:47:11;8.57;;;3.90;;
8574;SDS011;4325;42.520;27.448;2024-02-26T11:49:39;10.23;;;4.33;;
8574;SDS011;4325;42.520;27.448;2024-02-26T11:52:07;8.53;;;3.47;;
8574;SDS011;4325;42.520;27.448;2024-02-26T11:54:38;8.73;;;3.13;;
8574;SDS011;4325;42.520;27.448;2024-02-26T11:57:22;8.47;;;3.10;;
8574;SDS011;4325;42.520;27.448;2024-02-26T11:59:50;14.00;;;3.73;;
8574;SDS011;4325;42.520;27.448;2024-02-26T12:05:11;15.60;;;4.70;;
8574;SDS011;4325;42.520;27.448;2024-02-26T12:07:42;9.77;;;3.87;;
8574;SDS011;4325;42.520;27.448;2024-02-26T12:10:23;10.17;;;3.90;;
8574;SDS011;4325;42.520;27.448;2024-02-26T12:12:55;7.60;;;4.27;;
8574;SDS011;4325;42.520;27.448;2024-02-26T12:15:36;9.00;;;4.00;;
8574;SDS011;4325;42.520;27.448;2024-02-26T12:18:06;7.50;;;3.97;;
8574;SDS011;4325;42.520;27.448;2024-02-26T12:20:35;9.00;;;3.97;;
8574;SDS011;4325;42.520;27.448;2024-02-26T12:23:02;12.60;;;4.27;;
8574;SDS011;4325;42.520;27.448;2024-02-26T12:25:30;14.97;;;4.13;;
8574;SDS011;4325;42.520;27.448;2024-02-26T12:27:58;12.20;;;4.37;;
8574;SDS011;4325;42.520;27.448;2024-02-26T12:30:26;11.40;;;4.07;;
8574;SDS011;4325;42.520;27.448;2024-02-26T12:32:55;10.20;;;3.90;;
8574;SDS011;4325;42.520;27.448;2024-02-26T12:35:25;17.80;;;4.63;;
8574;SDS011;4325;42.520;27.448;2024-02-26T12:37:52;11.27;;;4.07;;
8574;SDS011;4325;42.520;27.448;2024-02-26T12:40:20;7.83;;;3.83;;
8574;SDS011;4325;42.520;27.448;2024-02-26T12:42:48;9.70;;;3.80;;
8574;SDS011;4325;42.520;27.448;2024-02-26T12:45:15;14.93;;;4.63;;
8574;SDS011;4325;42.520;27.448;2024-02-26T12:47:42;14.00;;;4.23;;
8574;SDS011;4325;42.520;27.448;2024-02-26T12:50:10;12.43;;;4.70;;
8574;SDS011;4325;42.520;27.448;2024-02-26T12:52:40;7.07;;;4.00;;
8574;SDS011;4325;42.520;27.448;2024-02-26T12:55:10;6.30;;;3.83;;
8574;SDS011;4325;42.520;27.448;2024-02-26T12:57:41;8.20;;;4.43;;
8574;SDS011;4325;42.520;27.448;2024-02-26T13:00:11;10.93;;;3.63;;
8574;SDS011;4325;42.520;27.448;2024-02-26T13:02:40;8.23;;;3.63;;
8574;SDS011;4325;42.520;27.448;2024-02-26T13:05:10;7.27;;;3.97;;
8574;SDS011;4325;42.520;27.448;2024-02-26T13:07:41;11.13;;;4.30;;
8574;SDS011;4325;42.520;27.448;2024-02-26T13:10:09;7.83;;;3.47;;
8574;SDS011;4325;42.520;27.448;2024-02-26T13:12:41;7.03;;;4.17;;
8574;SDS011;4325;42.520;27.448;2024-02-26T13:15:13;9.53;;;3.83;;
8574;SDS011;4325;42.520;27.448;2024-02-26T13:17:41;9.60;;;4.13;;
8574;SDS011;4325;42.520;27.448;2024-02-26T13:20:08;7.30;;;3.83;;
8574;SDS011;4325;42.520;27.448;2024-02-26T13:22:36;6.97;;;3.23;;
8574;SDS011;4325;42.520;27.448;2024-02-26T13:25:05;8.97;;;4.50;;
8574;SDS011;4325;42.520;27.448;2024-02-26T13:27:33;6.20;;;3.53;;
8574;SDS011;4325;42.520;27.448;2024-02-26T13:30:04;12.60;;;3.70;;
8574;SDS011;4325;42.520;27.448;2024-02-26T13:32:33;8.47;;;3.90;;
8574;SDS011;4325;42.520;27.448;2024-02-26T13:35:04;9.13;;;3.60;;
8574;SDS011;4325;42.520;27.448;2024-02-26T13:37:32;16.77;;;4.80;;
8574;SDS011;4325;42.520;27.448;2024-02-26T13:40:00;10.70;;;4.27;;
8574;SDS011;4325;42.520;27.448;2024-02-26T13:42:32;9.60;;;4.20;;
8574;SDS011;4325;42.520;27.448;2024-02-26T13:44:59;9.53;;;3.93;;
8574;SDS011;4325;42.520;27.448;2024-02-26T13:47:26;15.10;;;4.00;;
8574;SDS011;4325;42.520;27.448;2024-02-26T13:49:53;10.63;;;3.97;;
8574;SDS011;4325;42.520;27.448;2024-02-26T13:52:21;10.23;;;4.53;;
8574;SDS011;4325;42.520;27.448;2024-02-26T13:54:48;9.00;;;4.53;;
8574;SDS011;4325;42.520;27.448;2024-02-26T13:57:16;12.50;;;3.90;;
8574;SDS011;4325;42.520;27.448;2024-02-26T13:59:45;13.23;;;4.40;;
8574;SDS011;4325;42.520;27.448;2024-02-26T14:02:12;14.60;;;5.37;;
8574;SDS011;4325;42.520;27.448;2024-02-26T14:04:40;12.40;;;4.00;;
8574;SDS011;4325;42.520;27.448;2024-02-26T14:07:07;12.90;;;4.33;;
8574;SDS011;4325;42.520;27.448;2024-02-26T14:09:35;13.43;;;3.53;;
8574;SDS011;4325;42.520;27.448;2024-02-26T14:12:02;10.67;;;3.90;;
8574;SDS011;4325;42.520;27.448;2024-02-26T14:14:29;9.73;;;3.90;;
8574;SDS011;4325;42.520;27.448;2024-02-26T14:17:01;11.47;;;3.90;;
8574;SDS011;4325;42.520;27.448;2024-02-26T14:19:29;9.57;;;4.57;;
8574;SDS011;4325;42.520;27.448;2024-02-26T14:21:56;8.20;;;3.83;;
8574;SDS011;4325;42.520;27.448;2024-02-26T14:24:22;11.00;;;3.63;;
8574;SDS011;4325;42.520;27.448;2024-02-26T14:26:49;8.00;;;3.77;;
8574;SDS011;4325;42.520;27.448;2024-02-26T14:29:16;10.57;;;3.83;;
8574;SDS011;4325;42.520;27.448;2024-02-26T14:31:43;8.27;;;3.47;;
8574;SDS011;4325;42.520;27.448;2024-02-26T14:34:12;13.57;;;4.00;;
8574;SDS011;4325;42.520;27.448;2024-02-26T14:36:39;9.37;;;3.67;;
8574;SDS011;4325;42.520;27.448;2024-02-26T14:39:07;9.60;;;4.70;;
8574;SDS011;4325;42.520;27.448;2024-02-26T14:41:36;6.70;;;3.43;;
8574;SDS011;4325;42.520;27.448;2024-02-26T14:44:03;9.77;;;4.40;;
8574;SDS011;4325;42.520;27.448;2024-02-26T14:46:30;14.93;;;4.27;;
8574;SDS011;4325;42.520;27.448;2024-02-26T14:48:57;8.70;;;3.63;;
8574;SDS011;4325;42.520;27.448;2024-02-26T14:51:26;8.60;;;4.20;;
8574;SDS011;4325;42.520;27.448;2024-02-26T14:53:53;9.57;;;4.57;;